Nearby METAR Reports

 

EGTE - Exeter Airport, United Kingdom
Distance from station: S 19km
Updated: 23/05/2024 01:20
NOT Current
Partly cloudy
Partly cloudy
 Wind from WSW
Wind: WSW 9 km/h
Temperature: 13°C
Dew Point: 12°C
Humidity: 94%
Barometer: 1013 hPa
Clouds: Partly cloudy
Visibility: 7 km
Cloud details: Partly cloudy 488 m
2024/05/23 00:20 EGTE 230020Z 25005KT 7000 SCT016 13/12 Q1013
EGDY - Yeovilton (navy), United Kingdom
Distance from station: ENE 55km
Updated: 23/05/2024 05:50
Partly cloudy
Partly cloudy
 Wind from W
Wind: W 17 km/h
Temperature: 11°C
Dew Point: 9°C
Humidity: 88%
Barometer: 1013 hPa
Clouds: Partly cloudy
Visibility: 10 km
Cloud details: Few Clouds 732 m
Partly cloudy 762 m
2024/05/23 04:50 EGDY 230450Z 28009KT 9999 FEW024 SCT025 11/09 Q1013 RMK BLU
 
EGFF - Cardiff-Wales Ar, United Kingdom
Distance from station: N 56km
Updated: 23/05/2024 05:50
Overcast
Overcast
 Wind from NW
Wind: NW 17 km/h
Temperature: 11°C
Dew Point: 8°C
Humidity: 82%
Barometer: 1014 hPa
Clouds: Overcast
Visibility: 10 km
Cloud details: Mostly cloudy 640 m
Overcast 914 m
2024/05/23 04:50 EGFF 230450Z AUTO 31009KT 9999 BKN021 OVC030 11/08 Q1014
EGDX - St Athan Raf, United Kingdom
Distance from station: N 58km
Updated: 01/04/2019 13:50
NOT Current
Clear
Clear
 Wind from E
Wind: E 15 km/h
Temperature: 11°C
Dew Point: 5°C
Humidity: 67%
Barometer: 1019 hPa
Clouds: Clear
Visibility: 10 km
2019/04/01 12:50 EGDX 011250Z AUTO 10008KT 9999 NCD 11/05 Q1019
 
EGGD - Bristol/Lulsgate, United Kingdom
Distance from station: NE 71km
Updated: 23/05/2024 05:50
Overcast
Overcast
 Wind from WNW
Wind: WNW 20 km/h
Temperature: 11°C
Dew Point: 9°C
Humidity: 88%
Barometer: 1013 hPa
Clouds: Overcast
Visibility: 10 km
Cloud details: Mostly cloudy 396 m
Overcast 579 m
2024/05/23 04:50 EGGD 230450Z AUTO 29011KT 9999 BKN013 OVC019 11/09 Q1013